Airfield :
LOGIN :

Register | Disclaimer

   EN    FR    IT 

 










Legend :    VFR   Marginal VFR   IFR   Intensive IFR   Very Intensive IFR
Visi :
Ceiling :
>= 8 km
>= 3000ft
5 to 8 km
1000 to 3000 ft
1500m to 5 km
500 to 1000 ft
800 to 1500m
200 to 500 ft
< 800m
< 200 ft
Symbols :   Thunderstorms  Fog  Heavy snow  Heavy precipitations  Wind > 20 kt
SIGMETs :     Misc.  Thunderstorms  Icing  Turbulence  Mountain Waves  Volcanic Ashes






- Airport Elevation : 1411 ft
- IATA code : GVA


LSGG - Genève Cointrin

CURRENT METAR :
  • 241150Z 22015KT 9999 FEW035 SCT050 08/M00 Q1005 NOSIG

EXPIRED METARs :
  • 241120Z 21013KT 9999 FEW035 SCT050 07/00 Q1005 NOSIG
  • 241050Z 21012KT 9999 VCSH FEW025 BKN040 07/M00 Q1005 NOSIG
  • 241020Z 23015KT 9999 VCSH FEW030 BKN040 07/M01 Q1005 NOSIG
  • 240950Z 23018KT 9999 VCSH FEW030 SCT050 08/M01 Q1004 NOSIG
  • 240920Z 23010KT 9999 VCSH FEW030 SCT060 08/M01 Q1004 NOSIG
  • 240850Z 22005KT 180V240 9999 FEW040 SCT060 07/M01 Q1004 NOSIG
  • 240820Z 17006KT 9999 FEW040 SCT060 06/M01 Q1004 NOSIG
  • 240750Z 19006KT 9999 FEW045 SCT080 05/M01 Q1004 NOSIG
  • 240720Z 22006KT 200V260 9999 FEW045 05/M01 Q1003 NOSIG

TAF TAF LSGG
Valid from the 24 at 12:00 until the 25 at 18:00 UTC


241125Z 2412/2518 20013KT 9999 FEW040 SCT080 TX10/2414Z TN02/2506Z TX11/2514Z
BECMG 2418/2421 20003KT
TEMPO 2423/2506 SHRA BKN014
ATIS : +41 22 417 40 81



MET'MAP, your aeronautical weather chart ! - Copyright ORBIFLY December 2007 - Disclaimer

ORBIFLY MET'MAP TEAM :

Programming & Development : Alexandra Zaïnal
Original concept : Baudouin d'Aumeries
Technical & hardware support : Manuel Goepfert
Assistance : Marc-Olivier Méhu




SOURCES & CREDITS :

   NOAA